Christiana, PA (17509)

9:56 AM EDT on July 30, 2016 (GMT -0400)
Atglen Borough | | Change Station

Elev 498 ft 39.95 °N, 75.98 °W | Updated 8 seconds ago

Overcast
Overcast
76.8 °F
Feels Like 77 °F
N
2.0
Wind Variable Wind from SSE
Gusts 3.0 mph

Today
High -- | Low -- °F
--% Chance of Precip.
Yesterday
High -- | Low -- °F
Precip. -- in
Pressure 30.03 in
Visibility 2.5 miles
Clouds Overcast 300 ft
Heat Index 77 °F
Dew Point 76 °F
Humidity 96%
Rainfall 0.00 in
Snow Depth Not available.
6:01 AM 8:19 PM
Waning Crescent, 13% visible
METAR KMQS 301335Z AUTO 13004KT 2 1/2SM BR OVC003 24/23 A3003 RMK AO2
Pressure 30.03 in
Visibility 2.5 miles
Clouds Overcast 300 ft
Heat Index 77 °F
Dew Point 76 °F
Humidity 96%
Rainfall 0.00 in
Snow Depth Not available.
6:01 AM 8:19 PM
Waning Crescent, 13% visible
METAR KMQS 301335Z AUTO 13004KT 2 1/2SM BR OVC003 24/23 A3003 RMK AO2

10-Day Weather Forecast

Almanac

Astronomy

Jul. 30, 2016 Rise Set
Actual Time
Civil Twilight
Nautical Twilight
Astronomical Twilight
Moon
Length of Visible Light
Length of Day
Tomorrow will be .
, % of the Moon is Illuminated

Today's Extremes

State Highs State Lows

Community

WunderPhotos

Upload Photos

1,928,560 photos uploaded!

WunderBlog® & News

Nearby

Air Quality

  Air Quality AQ Index Pollutant
Not available.

Snow Depth

Station Depth Elevation

Earthquake Activity

City Distance Mag. Time & Date
Minimum magnitude displayed is 2.5.

Coastal Water Temperatures

Place Temperature

Stations

Nearby Weather Stations

Station Location Temp. Windchill Dew Point Humidity Wind Precip. Elev Updated Type
                   

Watches & Warnings

There are currently no watches in effect.